sensor_id;sensor_type;location;lat;lon;timestamp;P1;durP1;ratioP1;P2;durP2;ratioP2
12120;SDS011;6124;59.460;17.908;2023-02-23T00:01:15;7.90;;;5.17;;
12120;SDS011;6124;59.460;17.908;2023-02-23T00:03:44;7.77;;;4.73;;
12120;SDS011;6124;59.460;17.908;2023-02-23T00:06:13;7.13;;;4.60;;
12120;SDS011;6124;59.460;17.908;2023-02-23T00:08:40;9.20;;;5.10;;
12120;SDS011;6124;59.460;17.908;2023-02-23T00:11:09;8.13;;;4.50;;
12120;SDS011;6124;59.460;17.908;2023-02-23T00:13:37;6.63;;;5.00;;
12120;SDS011;6124;59.460;17.908;2023-02-23T00:16:05;5.90;;;4.23;;
12120;SDS011;6124;59.460;17.908;2023-02-23T00:18:33;8.57;;;4.70;;
12120;SDS011;6124;59.460;17.908;2023-02-23T00:21:11;6.73;;;4.47;;
12120;SDS011;6124;59.460;17.908;2023-02-23T00:23:40;8.37;;;5.00;;
12120;SDS011;6124;59.460;17.908;2023-02-23T00:26:07;7.37;;;4.87;;
12120;SDS011;6124;59.460;17.908;2023-02-23T00:28:37;7.40;;;4.53;;
12120;SDS011;6124;59.460;17.908;2023-02-23T00:31:06;8.20;;;5.33;;
12120;SDS011;6124;59.460;17.908;2023-02-23T00:33:33;7.37;;;4.87;;
12120;SDS011;6124;59.460;17.908;2023-02-23T00:36:05;9.63;;;5.13;;
12120;SDS011;6124;59.460;17.908;2023-02-23T00:38:33;8.50;;;4.83;;
12120;SDS011;6124;59.460;17.908;2023-02-23T00:41:05;7.43;;;4.43;;
12120;SDS011;6124;59.460;17.908;2023-02-23T00:43:33;8.60;;;4.80;;
12120;SDS011;6124;59.460;17.908;2023-02-23T00:46:00;7.00;;;4.60;;
12120;SDS011;6124;59.460;17.908;2023-02-23T00:48:30;6.50;;;4.33;;
12120;SDS011;6124;59.460;17.908;2023-02-23T00:50:58;7.43;;;4.27;;
12120;SDS011;6124;59.460;17.908;2023-02-23T00:53:25;6.60;;;4.33;;
12120;SDS011;6124;59.460;17.908;2023-02-23T00:55:54;6.33;;;3.90;;
12120;SDS011;6124;59.460;17.908;2023-02-23T00:58:22;6.73;;;4.23;;
12120;SDS011;6124;59.460;17.908;2023-02-23T01:00:50;8.83;;;4.40;;
12120;SDS011;6124;59.460;17.908;2023-02-23T01:03:17;5.50;;;3.97;;
12120;SDS011;6124;59.460;17.908;2023-02-23T01:05:45;6.47;;;3.60;;
12120;SDS011;6124;59.460;17.908;2023-02-23T01:08:14;5.63;;;3.60;;
12120;SDS011;6124;59.460;17.908;2023-02-23T01:10:42;7.30;;;4.27;;
12120;SDS011;6124;59.460;17.908;2023-02-23T01:13:18;7.07;;;3.97;;
12120;SDS011;6124;59.460;17.908;2023-02-23T01:15:45;6.93;;;4.10;;
12120;SDS011;6124;59.460;17.908;2023-02-23T01:18:13;4.40;;;3.57;;
12120;SDS011;6124;59.460;17.908;2023-02-23T01:20:41;6.33;;;3.83;;
12120;SDS011;6124;59.460;17.908;2023-02-23T01:23:09;6.23;;;4.30;;
12120;SDS011;6124;59.460;17.908;2023-02-23T01:25:38;5.97;;;3.90;;
12120;SDS011;6124;59.460;17.908;2023-02-23T01:28:06;5.73;;;3.90;;
12120;SDS011;6124;59.460;17.908;2023-02-23T01:30:35;6.30;;;3.63;;
12120;SDS011;6124;59.460;17.908;2023-02-23T01:33:03;5.47;;;3.60;;
12120;SDS011;6124;59.460;17.908;2023-02-23T01:35:30;4.90;;;3.40;;
12120;SDS011;6124;59.460;17.908;2023-02-23T01:37:58;4.37;;;2.83;;
12120;SDS011;6124;59.460;17.908;2023-02-23T01:40:26;6.07;;;3.70;;
12120;SDS011;6124;59.460;17.908;2023-02-23T01:42:55;4.93;;;3.00;;
12120;SDS011;6124;59.460;17.908;2023-02-23T01:45:24;5.37;;;3.40;;
12120;SDS011;6124;59.460;17.908;2023-02-23T01:47:55;7.77;;;3.23;;
12120;SDS011;6124;59.460;17.908;2023-02-23T01:50:26;3.90;;;2.77;;
12120;SDS011;6124;59.460;17.908;2023-02-23T01:52:54;4.40;;;3.33;;
12120;SDS011;6124;59.460;17.908;2023-02-23T01:55:23;5.17;;;3.27;;
12120;SDS011;6124;59.460;17.908;2023-02-23T01:57:54;4.47;;;3.23;;
12120;SDS011;6124;59.460;17.908;2023-02-23T02:00:23;4.97;;;3.20;;
12120;SDS011;6124;59.460;17.908;2023-02-23T02:02:58;4.70;;;3.23;;
12120;SDS011;6124;59.460;17.908;2023-02-23T02:05:26;6.70;;;3.50;;
12120;SDS011;6124;59.460;17.908;2023-02-23T02:07:54;5.13;;;3.20;;
12120;SDS011;6124;59.460;17.908;2023-02-23T02:10:25;4.97;;;3.97;;
12120;SDS011;6124;59.460;17.908;2023-02-23T02:13:05;8.87;;;3.83;;
12120;SDS011;6124;59.460;17.908;2023-02-23T02:15:34;5.73;;;3.60;;
12120;SDS011;6124;59.460;17.908;2023-02-23T02:18:09;4.87;;;3.80;;
12120;SDS011;6124;59.460;17.908;2023-02-23T02:23:48;7.20;;;4.30;;
12120;SDS011;6124;59.460;17.908;2023-02-23T02:26:21;6.03;;;3.60;;
12120;SDS011;6124;59.460;17.908;2023-02-23T02:29:00;7.67;;;3.80;;
12120;SDS011;6124;59.460;17.908;2023-02-23T02:34:40;6.70;;;4.20;;
12120;SDS011;6124;59.460;17.908;2023-02-23T02:40:02;6.03;;;4.03;;
12120;SDS011;6124;59.460;17.908;2023-02-23T02:42:50;7.10;;;3.80;;
12120;SDS011;6124;59.460;17.908;2023-02-23T02:45:21;6.03;;;3.80;;
12120;SDS011;6124;59.460;17.908;2023-02-23T02:47:53;8.33;;;4.70;;
12120;SDS011;6124;59.460;17.908;2023-02-23T02:50:24;7.40;;;4.13;;
12120;SDS011;6124;59.460;17.908;2023-02-23T02:52:56;7.10;;;3.87;;
12120;SDS011;6124;59.460;17.908;2023-02-23T02:55:28;6.60;;;4.20;;
12120;SDS011;6124;59.460;17.908;2023-02-23T02:57:58;5.40;;;3.90;;
12120;SDS011;6124;59.460;17.908;2023-02-23T03:00:28;6.33;;;3.90;;
12120;SDS011;6124;59.460;17.908;2023-02-23T03:03:26;7.43;;;3.90;;
12120;SDS011;6124;59.460;17.908;2023-02-23T03:06:11;7.07;;;3.87;;
12120;SDS011;6124;59.460;17.908;2023-02-23T03:08:58;7.70;;;4.23;;
12120;SDS011;6124;59.460;17.908;2023-02-23T03:11:47;5.53;;;3.50;;
12120;SDS011;6124;59.460;17.908;2023-02-23T03:14:36;6.30;;;4.23;;
12120;SDS011;6124;59.460;17.908;2023-02-23T03:17:26;6.17;;;4.00;;
12120;SDS011;6124;59.460;17.908;2023-02-23T03:20:16;7.70;;;4.00;;
12120;SDS011;6124;59.460;17.908;2023-02-23T03:23:04;5.40;;;3.90;;
12120;SDS011;6124;59.460;17.908;2023-02-23T03:25:50;8.27;;;4.23;;
12120;SDS011;6124;59.460;17.908;2023-02-23T03:28:42;6.50;;;4.13;;
12120;SDS011;6124;59.460;17.908;2023-02-23T03:31:32;6.77;;;4.27;;
12120;SDS011;6124;59.460;17.908;2023-02-23T03:34:21;5.97;;;3.77;;
12120;SDS011;6124;59.460;17.908;2023-02-23T03:37:12;6.40;;;4.20;;
12120;SDS011;6124;59.460;17.908;2023-02-23T03:40:01;6.10;;;3.60;;
12120;SDS011;6124;59.460;17.908;2023-02-23T03:42:48;5.77;;;4.00;;
12120;SDS011;6124;59.460;17.908;2023-02-23T03:45:37;7.50;;;4.17;;
12120;SDS011;6124;59.460;17.908;2023-02-23T03:48:22;6.27;;;4.37;;
12120;SDS011;6124;59.460;17.908;2023-02-23T03:51:08;7.83;;;4.50;;
12120;SDS011;6124;59.460;17.908;2023-02-23T03:53:57;5.50;;;3.77;;
12120;SDS011;6124;59.460;17.908;2023-02-23T03:56:44;6.83;;;3.70;;
12120;SDS011;6124;59.460;17.908;2023-02-23T03:59:31;5.73;;;3.60;;
12120;SDS011;6124;59.460;17.908;2023-02-23T04:02:20;5.53;;;3.87;;
12120;SDS011;6124;59.460;17.908;2023-02-23T04:05:07;5.03;;;3.47;;
12120;SDS011;6124;59.460;17.908;2023-02-23T04:07:53;5.90;;;3.70;;
12120;SDS011;6124;59.460;17.908;2023-02-23T04:10:40;5.03;;;3.60;;
12120;SDS011;6124;59.460;17.908;2023-02-23T04:13:28;6.73;;;3.97;;
12120;SDS011;6124;59.460;17.908;2023-02-23T04:15:57;6.33;;;3.77;;
12120;SDS011;6124;59.460;17.908;2023-02-23T04:18:25;6.40;;;3.67;;
12120;SDS011;6124;59.460;17.908;2023-02-23T04:20:53;4.77;;;3.40;;
12120;SDS011;6124;59.460;17.908;2023-02-23T04:23:21;6.07;;;3.87;;
12120;SDS011;6124;59.460;17.908;2023-02-23T04:25:48;5.30;;;3.67;;
12120;SDS011;6124;59.460;17.908;2023-02-23T04:28:16;6.43;;;4.20;;
12120;SDS011;6124;59.460;17.908;2023-02-23T04:30:43;7.60;;;3.90;;
12120;SDS011;6124;59.460;17.908;2023-02-23T04:33:11;6.07;;;3.80;;
12120;SDS011;6124;59.460;17.908;2023-02-23T04:35:40;5.27;;;3.70;;
12120;SDS011;6124;59.460;17.908;2023-02-23T04:38:07;6.70;;;3.87;;
12120;SDS011;6124;59.460;17.908;2023-02-23T04:40:35;6.10;;;4.20;;
12120;SDS011;6124;59.460;17.908;2023-02-23T04:43:02;6.13;;;3.67;;
12120;SDS011;6124;59.460;17.908;2023-02-23T04:45:29;5.60;;;4.10;;
12120;SDS011;6124;59.460;17.908;2023-02-23T04:47:57;7.47;;;3.67;;
12120;SDS011;6124;59.460;17.908;2023-02-23T04:50:24;6.20;;;3.60;;
12120;SDS011;6124;59.460;17.908;2023-02-23T04:52:53;5.57;;;3.93;;
12120;SDS011;6124;59.460;17.908;2023-02-23T04:55:21;5.57;;;3.57;;
12120;SDS011;6124;59.460;17.908;2023-02-23T04:57:49;5.90;;;3.50;;
12120;SDS011;6124;59.460;17.908;2023-02-23T05:00:17;6.07;;;3.63;;
12120;SDS011;6124;59.460;17.908;2023-02-23T05:02:44;6.47;;;4.30;;
12120;SDS011;6124;59.460;17.908;2023-02-23T05:05:12;6.47;;;4.03;;
12120;SDS011;6124;59.460;17.908;2023-02-23T05:07:39;6.47;;;3.90;;
12120;SDS011;6124;59.460;17.908;2023-02-23T05:10:09;9.77;;;4.17;;
12120;SDS011;6124;59.460;17.908;2023-02-23T05:12:36;4.97;;;3.60;;
12120;SDS011;6124;59.460;17.908;2023-02-23T05:15:04;8.43;;;4.30;;
12120;SDS011;6124;59.460;17.908;2023-02-23T05:17:31;6.67;;;3.63;;
12120;SDS011;6124;59.460;17.908;2023-02-23T05:19:59;5.57;;;3.90;;
12120;SDS011;6124;59.460;17.908;2023-02-23T05:22:26;7.60;;;4.03;;
12120;SDS011;6124;59.460;17.908;2023-02-23T05:24:53;6.00;;;3.80;;
12120;SDS011;6124;59.460;17.908;2023-02-23T05:27:22;7.33;;;3.93;;
12120;SDS011;6124;59.460;17.908;2023-02-23T05:29:49;5.50;;;3.63;;
12120;SDS011;6124;59.460;17.908;2023-02-23T05:32:17;5.83;;;4.10;;
12120;SDS011;6124;59.460;17.908;2023-02-23T05:34:44;6.60;;;3.63;;
12120;SDS011;6124;59.460;17.908;2023-02-23T05:37:12;7.13;;;3.83;;
12120;SDS011;6124;59.460;17.908;2023-02-23T05:39:39;5.83;;;4.07;;
12120;SDS011;6124;59.460;17.908;2023-02-23T05:42:06;7.17;;;3.93;;
12120;SDS011;6124;59.460;17.908;2023-02-23T05:44:35;5.73;;;3.60;;
12120;SDS011;6124;59.460;17.908;2023-02-23T05:47:03;6.93;;;4.27;;
12120;SDS011;6124;59.460;17.908;2023-02-23T05:49:30;7.77;;;4.10;;
12120;SDS011;6124;59.460;17.908;2023-02-23T05:51:57;7.67;;;4.90;;
12120;SDS011;6124;59.460;17.908;2023-02-23T05:54:25;8.43;;;4.83;;
12120;SDS011;6124;59.460;17.908;2023-02-23T05:56:52;7.30;;;4.10;;
12120;SDS011;6124;59.460;17.908;2023-02-23T05:59:19;8.33;;;4.47;;
12120;SDS011;6124;59.460;17.908;2023-02-23T06:01:48;6.53;;;4.10;;
12120;SDS011;6124;59.460;17.908;2023-02-23T06:04:15;7.17;;;4.07;;
12120;SDS011;6124;59.460;17.908;2023-02-23T06:06:43;7.03;;;4.90;;
12120;SDS011;6124;59.460;17.908;2023-02-23T06:09:10;6.00;;;3.93;;
12120;SDS011;6124;59.460;17.908;2023-02-23T06:11:38;8.33;;;4.43;;
12120;SDS011;6124;59.460;17.908;2023-02-23T06:14:05;5.87;;;3.97;;
12120;SDS011;6124;59.460;17.908;2023-02-23T06:16:32;7.60;;;4.67;;
12120;SDS011;6124;59.460;17.908;2023-02-23T06:19:01;6.60;;;3.77;;
12120;SDS011;6124;59.460;17.908;2023-02-23T06:21:29;7.47;;;4.40;;
12120;SDS011;6124;59.460;17.908;2023-02-23T06:23:56;7.17;;;4.37;;
12120;SDS011;6124;59.460;17.908;2023-02-23T06:26:25;7.00;;;3.93;;
12120;SDS011;6124;59.460;17.908;2023-02-23T06:28:52;6.33;;;3.80;;
12120;SDS011;6124;59.460;17.908;2023-02-23T06:31:20;9.33;;;4.20;;
12120;SDS011;6124;59.460;17.908;2023-02-23T06:33:47;6.90;;;4.27;;
12120;SDS011;6124;59.460;17.908;2023-02-23T06:36:16;6.33;;;4.00;;
12120;SDS011;6124;59.460;17.908;2023-02-23T06:38:43;6.13;;;3.80;;
12120;SDS011;6124;59.460;17.908;2023-02-23T06:41:11;5.70;;;3.97;;
12120;SDS011;6124;59.460;17.908;2023-02-23T06:43:38;9.30;;;4.07;;
12120;SDS011;6124;59.460;17.908;2023-02-23T06:46:05;4.90;;;3.50;;
12120;SDS011;6124;59.460;17.908;2023-02-23T06:48:33;5.93;;;3.60;;
12120;SDS011;6124;59.460;17.908;2023-02-23T06:51:00;5.50;;;3.43;;
12120;SDS011;6124;59.460;17.908;2023-02-23T06:53:29;8.83;;;3.93;;
12120;SDS011;6124;59.460;17.908;2023-02-23T06:55:57;6.23;;;3.77;;
12120;SDS011;6124;59.460;17.908;2023-02-23T06:58:25;6.63;;;3.53;;
12120;SDS011;6124;59.460;17.908;2023-02-23T07:00:53;5.90;;;3.90;;
12120;SDS011;6124;59.460;17.908;2023-02-23T07:03:22;6.50;;;3.77;;
12120;SDS011;6124;59.460;17.908;2023-02-23T07:05:50;6.90;;;3.60;;
12120;SDS011;6124;59.460;17.908;2023-02-23T07:08:18;6.07;;;3.77;;
12120;SDS011;6124;59.460;17.908;2023-02-23T07:10:46;9.00;;;4.20;;
12120;SDS011;6124;59.460;17.908;2023-02-23T07:13:14;5.40;;;3.60;;
12120;SDS011;6124;59.460;17.908;2023-02-23T07:15:41;5.87;;;3.47;;
12120;SDS011;6124;59.460;17.908;2023-02-23T07:18:09;5.37;;;3.37;;
12120;SDS011;6124;59.460;17.908;2023-02-23T07:20:36;6.37;;;3.53;;
12120;SDS011;6124;59.460;17.908;2023-02-23T07:23:03;5.40;;;3.53;;
12120;SDS011;6124;59.460;17.908;2023-02-23T07:25:30;6.37;;;3.70;;
12120;SDS011;6124;59.460;17.908;2023-02-23T07:28:00;6.77;;;4.27;;
12120;SDS011;6124;59.460;17.908;2023-02-23T07:30:27;6.23;;;3.90;;
12120;SDS011;6124;59.460;17.908;2023-02-23T07:32:54;4.43;;;3.40;;
12120;SDS011;6124;59.460;17.908;2023-02-23T07:35:22;7.00;;;3.80;;
12120;SDS011;6124;59.460;17.908;2023-02-23T07:37:49;6.53;;;3.53;;
12120;SDS011;6124;59.460;17.908;2023-02-23T07:40:17;6.07;;;3.87;;
12120;SDS011;6124;59.460;17.908;2023-02-23T07:42:44;5.83;;;3.30;;
12120;SDS011;6124;59.460;17.908;2023-02-23T07:45:13;5.43;;;3.67;;
12120;SDS011;6124;59.460;17.908;2023-02-23T07:47:40;8.37;;;3.97;;
12120;SDS011;6124;59.460;17.908;2023-02-23T07:50:08;5.87;;;3.37;;
12120;SDS011;6124;59.460;17.908;2023-02-23T07:52:36;6.93;;;4.27;;
12120;SDS011;6124;59.460;17.908;2023-02-23T07:55:05;5.50;;;3.37;;
12120;SDS011;6124;59.460;17.908;2023-02-23T07:57:32;5.13;;;3.20;;
12120;SDS011;6124;59.460;17.908;2023-02-23T08:00:00;4.47;;;3.27;;
12120;SDS011;6124;59.460;17.908;2023-02-23T08:02:29;4.87;;;3.40;;
12120;SDS011;6124;59.460;17.908;2023-02-23T08:04:56;6.37;;;3.60;;
12120;SDS011;6124;59.460;17.908;2023-02-23T08:07:24;6.67;;;3.40;;
12120;SDS011;6124;59.460;17.908;2023-02-23T08:09:51;5.77;;;3.10;;
12120;SDS011;6124;59.460;17.908;2023-02-23T08:12:19;5.00;;;3.20;;
12120;SDS011;6124;59.460;17.908;2023-02-23T08:14:46;5.27;;;3.07;;
12120;SDS011;6124;59.460;17.908;2023-02-23T08:17:13;4.77;;;2.93;;
12120;SDS011;6124;59.460;17.908;2023-02-23T08:19:42;4.07;;;2.70;;
12120;SDS011;6124;59.460;17.908;2023-02-23T08:22:10;3.73;;;2.70;;
12120;SDS011;6124;59.460;17.908;2023-02-23T08:24:37;3.73;;;2.90;;
12120;SDS011;6124;59.460;17.908;2023-02-23T08:27:04;4.63;;;2.93;;
12120;SDS011;6124;59.460;17.908;2023-02-23T08:29:31;4.20;;;2.50;;
12120;SDS011;6124;59.460;17.908;2023-02-23T08:32:00;3.87;;;2.73;;
12120;SDS011;6124;59.460;17.908;2023-02-23T08:34:28;5.03;;;3.00;;
12120;SDS011;6124;59.460;17.908;2023-02-23T08:36:57;3.43;;;2.43;;
12120;SDS011;6124;59.460;17.908;2023-02-23T08:39:24;4.03;;;2.70;;
12120;SDS011;6124;59.460;17.908;2023-02-23T08:41:51;3.57;;;2.60;;
12120;SDS011;6124;59.460;17.908;2023-02-23T08:44:19;3.33;;;2.63;;
12120;SDS011;6124;59.460;17.908;2023-02-23T08:46:47;3.50;;;2.50;;
12120;SDS011;6124;59.460;17.908;2023-02-23T08:49:14;3.70;;;2.80;;
12120;SDS011;6124;59.460;17.908;2023-02-23T08:51:42;3.27;;;2.57;;
12120;SDS011;6124;59.460;17.908;2023-02-23T08:54:12;4.37;;;2.57;;
12120;SDS011;6124;59.460;17.908;2023-02-23T08:56:40;4.17;;;2.70;;
12120;SDS011;6124;59.460;17.908;2023-02-23T08:59:08;4.10;;;2.20;;
12120;SDS011;6124;59.460;17.908;2023-02-23T09:01:35;3.20;;;2.27;;
12120;SDS011;6124;59.460;17.908;2023-02-23T09:04:03;3.63;;;2.13;;
12120;SDS011;6124;59.460;17.908;2023-02-23T09:06:30;3.70;;;2.67;;
12120;SDS011;6124;59.460;17.908;2023-02-23T09:08:59;3.40;;;2.63;;
12120;SDS011;6124;59.460;17.908;2023-02-23T09:11:28;3.37;;;2.37;;
12120;SDS011;6124;59.460;17.908;2023-02-23T09:13:55;4.90;;;2.57;;
12120;SDS011;6124;59.460;17.908;2023-02-23T09:16:23;3.63;;;2.47;;
12120;SDS011;6124;59.460;17.908;2023-02-23T09:18:50;2.90;;;2.50;;
12120;SDS011;6124;59.460;17.908;2023-02-23T09:21:18;4.40;;;2.73;;
12120;SDS011;6124;59.460;17.908;2023-02-23T09:23:49;3.03;;;2.50;;
12120;SDS011;6124;59.460;17.908;2023-02-23T09:26:20;4.40;;;2.80;;
12120;SDS011;6124;59.460;17.908;2023-02-23T09:28:49;4.33;;;2.43;;
12120;SDS011;6124;59.460;17.908;2023-02-23T09:31:17;5.07;;;2.60;;
12120;SDS011;6124;59.460;17.908;2023-02-23T09:33:45;2.93;;;2.40;;
12120;SDS011;6124;59.460;17.908;2023-02-23T09:36:13;3.20;;;2.40;;
12120;SDS011;6124;59.460;17.908;2023-02-23T09:38:40;3.70;;;2.37;;
12120;SDS011;6124;59.460;17.908;2023-02-23T09:41:15;3.93;;;2.80;;
12120;SDS011;6124;59.460;17.908;2023-02-23T09:43:55;3.90;;;2.57;;
12120;SDS011;6124;59.460;17.908;2023-02-23T09:46:26;3.97;;;2.73;;
12120;SDS011;6124;59.460;17.908;2023-02-23T09:48:56;3.67;;;2.80;;
12120;SDS011;6124;59.460;17.908;2023-02-23T09:51:25;4.67;;;3.10;;
12120;SDS011;6124;59.460;17.908;2023-02-23T09:53:54;3.43;;;2.73;;
12120;SDS011;6124;59.460;17.908;2023-02-23T09:56:23;3.63;;;2.60;;
12120;SDS011;6124;59.460;17.908;2023-02-23T09:58:54;3.40;;;2.53;;
12120;SDS011;6124;59.460;17.908;2023-02-23T10:04:14;4.17;;;2.87;;
12120;SDS011;6124;59.460;17.908;2023-02-23T10:06:46;4.53;;;2.97;;
12120;SDS011;6124;59.460;17.908;2023-02-23T10:09:16;5.20;;;3.00;;
12120;SDS011;6124;59.460;17.908;2023-02-23T10:11:45;3.00;;;2.50;;
12120;SDS011;6124;59.460;17.908;2023-02-23T10:14:22;3.87;;;2.40;;
12120;SDS011;6124;59.460;17.908;2023-02-23T10:16:56;4.97;;;2.70;;
12120;SDS011;6124;59.460;17.908;2023-02-23T10:19:27;3.40;;;2.60;;
12120;SDS011;6124;59.460;17.908;2023-02-23T10:21:56;4.67;;;2.60;;
12120;SDS011;6124;59.460;17.908;2023-02-23T10:24:26;4.73;;;3.20;;
12120;SDS011;6124;59.460;17.908;2023-02-23T10:26:55;3.90;;;2.70;;
12120;SDS011;6124;59.460;17.908;2023-02-23T10:29:27;3.77;;;3.00;;
12120;SDS011;6124;59.460;17.908;2023-02-23T10:31:57;3.47;;;3.13;;
12120;SDS011;6124;59.460;17.908;2023-02-23T10:34:26;3.87;;;2.70;;
12120;SDS011;6124;59.460;17.908;2023-02-23T10:36:56;4.07;;;3.10;;
12120;SDS011;6124;59.460;17.908;2023-02-23T10:39:24;3.63;;;3.00;;
12120;SDS011;6124;59.460;17.908;2023-02-23T10:41:51;5.63;;;3.57;;
12120;SDS011;6124;59.460;17.908;2023-02-23T10:44:20;5.77;;;3.40;;
12120;SDS011;6124;59.460;17.908;2023-02-23T10:46:52;4.60;;;3.33;;
12120;SDS011;6124;59.460;17.908;2023-02-23T10:49:21;4.90;;;3.33;;
12120;SDS011;6124;59.460;17.908;2023-02-23T10:51:48;4.43;;;3.23;;
12120;SDS011;6124;59.460;17.908;2023-02-23T10:57:08;5.13;;;3.73;;
12120;SDS011;6124;59.460;17.908;2023-02-23T10:59:57;3.57;;;2.83;;
12120;SDS011;6124;59.460;17.908;2023-02-23T11:02:26;4.50;;;3.40;;
12120;SDS011;6124;59.460;17.908;2023-02-23T11:04:55;4.20;;;3.23;;
12120;SDS011;6124;59.460;17.908;2023-02-23T11:07:24;4.00;;;3.07;;
12120;SDS011;6124;59.460;17.908;2023-02-23T11:09:53;4.30;;;3.30;;
12120;SDS011;6124;59.460;17.908;2023-02-23T11:12:21;5.67;;;3.23;;
12120;SDS011;6124;59.460;17.908;2023-02-23T11:14:49;4.07;;;3.27;;
12120;SDS011;6124;59.460;17.908;2023-02-23T11:17:25;3.10;;;2.70;;
12120;SDS011;6124;59.460;17.908;2023-02-23T11:19:57;6.20;;;3.53;;
12120;SDS011;6124;59.460;17.908;2023-02-23T11:22:29;4.17;;;3.17;;
12120;SDS011;6124;59.460;17.908;2023-02-23T11:24:56;4.10;;;2.90;;
12120;SDS011;6124;59.460;17.908;2023-02-23T11:27:24;3.50;;;2.87;;
12120;SDS011;6124;59.460;17.908;2023-02-23T11:29:53;4.57;;;3.47;;
12120;SDS011;6124;59.460;17.908;2023-02-23T11:32:22;5.93;;;3.20;;
12120;SDS011;6124;59.460;17.908;2023-02-23T11:37:36;3.50;;;3.07;;
12120;SDS011;6124;59.460;17.908;2023-02-23T11:40:16;3.93;;;3.03;;
12120;SDS011;6124;59.460;17.908;2023-02-23T11:42:49;4.43;;;3.37;;
12120;SDS011;6124;59.460;17.908;2023-02-23T11:45:18;4.13;;;3.17;;
12120;SDS011;6124;59.460;17.908;2023-02-23T11:47:46;3.80;;;3.13;;
12120;SDS011;6124;59.460;17.908;2023-02-23T11:50:19;4.17;;;3.23;;
12120;SDS011;6124;59.460;17.908;2023-02-23T11:52:51;5.73;;;3.50;;
12120;SDS011;6124;59.460;17.908;2023-02-23T11:55:19;3.87;;;3.23;;
12120;SDS011;6124;59.460;17.908;2023-02-23T11:57:49;4.90;;;3.33;;
12120;SDS011;6124;59.460;17.908;2023-02-23T12:00:21;4.23;;;3.20;;
12120;SDS011;6124;59.460;17.908;2023-02-23T12:02:50;3.83;;;3.00;;
12120;SDS011;6124;59.460;17.908;2023-02-23T12:05:20;5.03;;;3.40;;
12120;SDS011;6124;59.460;17.908;2023-02-23T12:07:52;4.67;;;3.53;;
12120;SDS011;6124;59.460;17.908;2023-02-23T12:10:20;4.60;;;3.63;;
12120;SDS011;6124;59.460;17.908;2023-02-23T12:12:51;5.57;;;3.63;;
12120;SDS011;6124;59.460;17.908;2023-02-23T12:15:22;4.67;;;3.60;;
12120;SDS011;6124;59.460;17.908;2023-02-23T12:17:52;4.83;;;3.60;;
12120;SDS011;6124;59.460;17.908;2023-02-23T12:20:22;4.97;;;3.23;;
12120;SDS011;6124;59.460;17.908;2023-02-23T12:22:53;4.77;;;3.60;;
12120;SDS011;6124;59.460;17.908;2023-02-23T12:25:23;5.53;;;3.67;;
12120;SDS011;6124;59.460;17.908;2023-02-23T12:27:54;6.23;;;3.80;;
12120;SDS011;6124;59.460;17.908;2023-02-23T12:30:25;4.80;;;3.53;;
12120;SDS011;6124;59.460;17.908;2023-02-23T12:32:54;4.37;;;3.30;;
12120;SDS011;6124;59.460;17.908;2023-02-23T12:35:24;4.43;;;3.67;;
12120;SDS011;6124;59.460;17.908;2023-02-23T12:37:57;4.83;;;3.60;;
12120;SDS011;6124;59.460;17.908;2023-02-23T12:40:27;4.90;;;3.50;;
12120;SDS011;6124;59.460;17.908;2023-02-23T12:42:57;6.20;;;3.43;;
12120;SDS011;6124;59.460;17.908;2023-02-23T12:45:27;5.17;;;3.70;;
12120;SDS011;6124;59.460;17.908;2023-02-23T12:48:00;5.23;;;3.93;;
12120;SDS011;6124;59.460;17.908;2023-02-23T12:50:29;4.63;;;3.57;;
12120;SDS011;6124;59.460;17.908;2023-02-23T12:53:03;5.60;;;4.00;;
12120;SDS011;6124;59.460;17.908;2023-02-23T12:55:38;5.67;;;3.70;;
12120;SDS011;6124;59.460;17.908;2023-02-23T12:58:13;5.97;;;4.13;;
12120;SDS011;6124;59.460;17.908;2023-02-23T13:00:46;3.97;;;3.30;;
12120;SDS011;6124;59.460;17.908;2023-02-23T13:03:25;4.83;;;3.70;;
12120;SDS011;6124;59.460;17.908;2023-02-23T13:05:55;4.53;;;3.37;;
12120;SDS011;6124;59.460;17.908;2023-02-23T13:08:31;4.33;;;3.30;;
12120;SDS011;6124;59.460;17.908;2023-02-23T13:11:03;7.97;;;3.70;;
12120;SDS011;6124;59.460;17.908;2023-02-23T13:13:33;3.87;;;3.27;;
12120;SDS011;6124;59.460;17.908;2023-02-23T13:16:07;4.60;;;3.40;;
12120;SDS011;6124;59.460;17.908;2023-02-23T13:18:36;5.37;;;3.30;;
12120;SDS011;6124;59.460;17.908;2023-02-23T13:21:07;5.37;;;3.37;;
12120;SDS011;6124;59.460;17.908;2023-02-23T13:23:40;3.63;;;3.13;;
12120;SDS011;6124;59.460;17.908;2023-02-23T13:26:10;5.20;;;3.47;;
12120;SDS011;6124;59.460;17.908;2023-02-23T13:28:44;4.33;;;3.37;;
12120;SDS011;6124;59.460;17.908;2023-02-23T13:31:17;6.33;;;3.27;;
12120;SDS011;6124;59.460;17.908;2023-02-23T13:33:45;4.87;;;3.50;;
12120;SDS011;6124;59.460;17.908;2023-02-23T13:36:13;4.43;;;3.33;;
12120;SDS011;6124;59.460;17.908;2023-02-23T13:38:45;5.63;;;3.37;;
12120;SDS011;6124;59.460;17.908;2023-02-23T13:41:20;4.87;;;3.43;;
12120;SDS011;6124;59.460;17.908;2023-02-23T13:43:51;3.97;;;3.43;;
12120;SDS011;6124;59.460;17.908;2023-02-23T13:46:24;5.50;;;3.60;;
12120;SDS011;6124;59.460;17.908;2023-02-23T13:48:54;5.13;;;3.33;;
12120;SDS011;6124;59.460;17.908;2023-02-23T13:51:26;4.33;;;2.73;;
12120;SDS011;6124;59.460;17.908;2023-02-23T13:54:02;5.00;;;3.30;;
12120;SDS011;6124;59.460;17.908;2023-02-23T13:56:33;4.87;;;2.90;;
12120;SDS011;6124;59.460;17.908;2023-02-23T13:59:04;3.67;;;2.90;;
12120;SDS011;6124;59.460;17.908;2023-02-23T14:01:35;3.40;;;2.83;;
12120;SDS011;6124;59.460;17.908;2023-02-23T14:04:03;4.57;;;3.07;;
12120;SDS011;6124;59.460;17.908;2023-02-23T14:06:36;4.33;;;2.80;;
12120;SDS011;6124;59.460;17.908;2023-02-23T14:09:08;4.67;;;3.00;;
12120;SDS011;6124;59.460;17.908;2023-02-23T14:11:38;4.57;;;3.00;;
12120;SDS011;6124;59.460;17.908;2023-02-23T14:14:08;4.20;;;3.23;;
12120;SDS011;6124;59.460;17.908;2023-02-23T14:16:36;3.93;;;3.20;;
12120;SDS011;6124;59.460;17.908;2023-02-23T14:19:05;3.93;;;3.37;;
12120;SDS011;6124;59.460;17.908;2023-02-23T14:21:34;3.97;;;3.07;;
12120;SDS011;6124;59.460;17.908;2023-02-23T14:24:15;3.73;;;3.10;;
12120;SDS011;6124;59.460;17.908;2023-02-23T14:26:44;4.57;;;3.67;;
12120;SDS011;6124;59.460;17.908;2023-02-23T14:29:25;3.90;;;3.20;;
12120;SDS011;6124;59.460;17.908;2023-02-23T14:32:00;4.33;;;3.30;;
12120;SDS011;6124;59.460;17.908;2023-02-23T14:34:41;3.70;;;2.70;;
12120;SDS011;6124;59.460;17.908;2023-02-23T14:37:16;3.90;;;2.97;;
12120;SDS011;6124;59.460;17.908;2023-02-23T14:39:48;4.73;;;2.93;;
12120;SDS011;6124;59.460;17.908;2023-02-23T14:42:19;3.73;;;3.10;;
12120;SDS011;6124;59.460;17.908;2023-02-23T14:44:47;4.13;;;3.07;;
12120;SDS011;6124;59.460;17.908;2023-02-23T14:47:16;4.50;;;3.23;;
12120;SDS011;6124;59.460;17.908;2023-02-23T14:49:45;4.27;;;3.20;;
12120;SDS011;6124;59.460;17.908;2023-02-23T14:52:14;4.03;;;3.10;;
12120;SDS011;6124;59.460;17.908;2023-02-23T14:54:45;4.20;;;3.20;;
12120;SDS011;6124;59.460;17.908;2023-02-23T14:57:18;2.90;;;2.63;;
12120;SDS011;6124;59.460;17.908;2023-02-23T14:59:50;4.33;;;3.23;;
12120;SDS011;6124;59.460;17.908;2023-02-23T15:02:18;3.87;;;3.30;;
12120;SDS011;6124;59.460;17.908;2023-02-23T15:04:46;3.70;;;2.90;;
12120;SDS011;6124;59.460;17.908;2023-02-23T15:07:14;3.80;;;3.20;;
12120;SDS011;6124;59.460;17.908;2023-02-23T15:09:43;4.73;;;3.23;;
12120;SDS011;6124;59.460;17.908;2023-02-23T15:12:13;4.13;;;3.43;;
12120;SDS011;6124;59.460;17.908;2023-02-23T15:14:42;3.30;;;2.80;;
12120;SDS011;6124;59.460;17.908;2023-02-23T15:17:12;3.23;;;2.87;;
12120;SDS011;6124;59.460;17.908;2023-02-23T15:19:41;4.40;;;3.27;;
12120;SDS011;6124;59.460;17.908;2023-02-23T15:22:13;3.93;;;3.10;;
12120;SDS011;6124;59.460;17.908;2023-02-23T15:24:43;4.37;;;3.13;;
12120;SDS011;6124;59.460;17.908;2023-02-23T15:27:17;4.60;;;3.20;;